createdAt,value
2023-07-11T00:02:18.382Z,6.95
2023-07-11T00:04:44.816Z,4.68
2023-07-11T00:07:11.267Z,3.88
2023-07-11T00:09:37.682Z,7.28
2023-07-11T00:12:06.664Z,5.80
2023-07-11T00:14:33.262Z,5.95
2023-07-11T00:16:59.737Z,5.90
2023-07-11T00:19:26.464Z,5.82
2023-07-11T00:21:52.933Z,6.07
2023-07-11T00:24:19.328Z,5.88
2023-07-11T00:26:45.777Z,5.57
2023-07-11T00:29:17.866Z,7.10
2023-07-11T00:31:44.281Z,6.30
2023-07-11T00:34:10.904Z,5.22
2023-07-11T00:36:37.599Z,5.63
2023-07-11T00:39:04.364Z,6.55
2023-07-11T00:41:30.780Z,6.05
2023-07-11T00:43:57.202Z,8.23
2023-07-11T00:46:25.250Z,4.18
2023-07-11T00:48:55.037Z,5.88
2023-07-11T00:51:26.924Z,5.30
2023-07-11T00:53:54.272Z,3.97
2023-07-11T00:56:25.841Z,7.15
2023-07-11T00:58:54.186Z,5.93
2023-07-11T01:01:21.605Z,5.25
2023-07-11T01:03:51.482Z,5.05
2023-07-11T01:06:21.478Z,5.53
2023-07-11T01:08:50.600Z,6.38
2023-07-11T01:11:18.630Z,4.63
2023-07-11T01:13:45.241Z,5.90
2023-07-11T01:16:11.925Z,3.72
2023-07-11T01:18:38.882Z,5.10
2023-07-11T01:21:06.857Z,4.75
2023-07-11T01:23:35.185Z,5.13
2023-07-11T01:26:02.676Z,5.10
2023-07-11T01:28:29.687Z,4.60
2023-07-11T01:30:56.589Z,3.08
2023-07-11T01:33:23.845Z,5.80
2023-07-11T01:35:50.444Z,7.70
2023-07-11T01:38:16.901Z,3.85
2023-07-11T01:40:44.668Z,5.25
2023-07-11T01:43:11.342Z,5.10
2023-07-11T01:45:37.847Z,5.05
2023-07-11T01:48:04.547Z,6.53
2023-07-11T01:50:31.014Z,7.32
2023-07-11T01:52:57.476Z,5.40
2023-07-11T01:55:24.025Z,4.70
2023-07-11T01:57:52.259Z,6.53
2023-07-11T02:00:18.924Z,4.95
2023-07-11T02:02:45.653Z,6.93
2023-07-11T02:05:12.222Z,6.50
2023-07-11T02:07:38.632Z,4.30
2023-07-11T02:10:06.557Z,5.70
2023-07-11T02:12:33.034Z,7.25
2023-07-11T02:15:01.027Z,6.28
2023-07-11T02:17:27.638Z,7.28
2023-07-11T02:19:54.214Z,5.63
2023-07-11T02:22:20.667Z,4.13
2023-07-11T02:24:47.080Z,6.18
2023-07-11T02:27:13.673Z,5.45
2023-07-11T02:29:40.156Z,8.57
2023-07-11T02:32:08.941Z,4.05
2023-07-11T02:34:35.370Z,6.00
2023-07-11T02:37:01.797Z,6.47
2023-07-11T02:39:28.228Z,5.75
2023-07-11T02:41:54.870Z,6.93
2023-07-11T02:44:21.290Z,4.80
2023-07-11T02:46:47.713Z,5.40
2023-07-11T02:49:15.478Z,5.13
2023-07-11T02:51:41.902Z,4.63
2023-07-11T02:54:08.455Z,7.43
2023-07-11T02:56:35.638Z,6.15
2023-07-11T02:59:02.109Z,5.68
2023-07-11T03:01:31.256Z,7.32
2023-07-11T03:03:57.841Z,6.80
2023-07-11T03:06:25.654Z,6.28
2023-07-11T03:08:52.103Z,5.75
2023-07-11T03:11:18.578Z,7.05
2023-07-11T03:13:45.007Z,5.43
2023-07-11T03:16:11.736Z,4.63
2023-07-11T03:18:38.491Z,6.60
2023-07-11T03:21:04.906Z,7.47
2023-07-11T03:23:32.884Z,5.85
2023-07-11T03:25:59.316Z,7.55
2023-07-11T03:28:25.907Z,6.80
2023-07-11T03:30:52.713Z,6.97
2023-07-11T03:33:19.398Z,6.00
2023-07-11T03:35:49.186Z,4.57
2023-07-11T03:38:15.630Z,6.30
2023-07-11T03:40:43.445Z,7.13
2023-07-11T03:43:11.048Z,4.75
2023-07-11T03:45:41.270Z,4.63
2023-07-11T03:48:07.907Z,9.13
2023-07-11T03:50:34.326Z,7.22
2023-07-11T03:53:00.737Z,6.75
2023-07-11T03:55:27.199Z,7.53
2023-07-11T03:57:54.950Z,6.07
2023-07-11T04:00:21.805Z,6.63
2023-07-11T04:02:48.329Z,5.00
2023-07-11T04:05:15.583Z,5.53
2023-07-11T04:07:42.011Z,8.05
2023-07-11T04:10:09.455Z,5.10
2023-07-11T04:12:35.912Z,7.88
2023-07-11T04:15:04.196Z,5.00
2023-07-11T04:17:30.645Z,6.88
2023-07-11T04:19:57.034Z,7.28
2023-07-11T04:22:23.722Z,7.00
2023-07-11T04:24:50.166Z,6.63
2023-07-11T04:27:16.641Z,5.82
2023-07-11T04:29:43.322Z,6.57
2023-07-11T04:32:11.100Z,11.40
2023-07-11T04:34:37.597Z,6.28
2023-07-11T04:37:04.403Z,8.20
2023-07-11T04:39:31.013Z,5.85
2023-07-11T04:41:57.435Z,4.80
2023-07-11T04:44:23.962Z,8.70
2023-07-11T04:46:50.461Z,6.60
2023-07-11T04:49:18.496Z,10.02
2023-07-11T04:51:45.002Z,5.13
2023-07-11T04:54:11.500Z,6.00
2023-07-11T04:56:40.353Z,5.10
2023-07-11T04:59:06.895Z,8.43
2023-07-11T05:01:33.592Z,6.85
2023-07-11T05:04:00.169Z,5.38
2023-07-11T05:06:27.981Z,11.15
2023-07-11T05:08:54.566Z,5.57
2023-07-11T05:11:22.249Z,6.10
2023-07-11T05:13:50.601Z,7.15
2023-07-11T05:16:18.837Z,7.75
2023-07-11T05:18:47.396Z,5.10
2023-07-11T05:21:15.509Z,5.78
2023-07-11T05:23:43.343Z,9.13
2023-07-11T05:26:10.089Z,7.47
2023-07-11T05:28:37.101Z,6.40
2023-07-11T05:31:06.932Z,4.88
2023-07-11T05:33:33.936Z,11.10
2023-07-11T05:36:00.639Z,13.02
2023-07-11T05:38:27.056Z,8.45
2023-07-11T05:40:57.162Z,6.47
2023-07-11T05:43:23.577Z,6.97
2023-07-11T05:45:50.265Z,7.38
2023-07-11T05:48:16.738Z,9.55
2023-07-11T05:50:43.289Z,8.57
2023-07-11T05:53:09.885Z,5.82
2023-07-11T05:55:36.306Z,7.30
2023-07-11T05:58:04.082Z,6.43
2023-07-11T06:00:30.548Z,6.80
2023-07-11T06:02:57.006Z,5.40
2023-07-11T06:05:24.459Z,5.00
2023-07-11T06:07:50.944Z,6.63
2023-07-11T06:10:17.567Z,6.82
2023-07-11T06:12:44.004Z,5.75
2023-07-11T06:15:12.383Z,5.80
2023-07-11T06:17:38.869Z,5.28
2023-07-11T06:20:06.831Z,4.63
2023-07-11T06:22:33.355Z,6.95
2023-07-11T06:24:59.793Z,7.63
2023-07-11T06:27:26.262Z,6.03
2023-07-11T06:29:52.778Z,4.82
2023-07-11T06:32:20.612Z,7.32
2023-07-11T06:34:47.159Z,3.33
2023-07-11T06:37:13.744Z,5.72
2023-07-11T06:39:41.245Z,6.63
2023-07-11T06:42:07.751Z,5.78
2023-07-11T06:44:34.290Z,4.00
2023-07-11T06:47:00.727Z,6.00
2023-07-11T06:49:28.503Z,6.20
2023-07-11T06:51:55.149Z,4.47
2023-07-11T06:54:21.674Z,6.20
2023-07-11T06:56:48.120Z,4.65
2023-07-11T06:59:20.055Z,4.07
2023-07-11T07:01:46.626Z,5.68
2023-07-11T07:04:13.219Z,6.18
2023-07-11T07:06:41.122Z,4.53
2023-07-11T07:09:08.073Z,5.00
2023-07-11T07:11:35.068Z,5.22
2023-07-11T07:14:06.344Z,5.65
2023-07-11T07:16:33.833Z,4.45
2023-07-11T07:19:00.432Z,4.63
2023-07-11T07:21:27.012Z,3.58
2023-07-11T07:23:54.795Z,6.82
2023-07-11T07:26:21.276Z,3.33
2023-07-11T07:28:47.748Z,5.65
2023-07-11T07:31:14.804Z,8.55
2023-07-11T07:33:41.907Z,6.65
2023-07-11T07:36:11.345Z,4.85
2023-07-11T07:38:37.814Z,8.07
2023-07-11T07:41:07.589Z,8.52
2023-07-11T07:43:35.356Z,5.55
2023-07-11T07:46:03.431Z,3.35
2023-07-11T07:48:30.062Z,5.43
2023-07-11T07:51:01.687Z,6.47
2023-07-11T07:53:28.119Z,5.18
2023-07-11T07:55:54.539Z,6.18
2023-07-11T07:58:36.929Z,5.38
2023-07-11T08:01:08.992Z,4.75
2023-07-11T08:03:35.814Z,4.10
2023-07-11T08:06:14.183Z,4.57
2023-07-11T08:08:42.700Z,6.93
2023-07-11T08:11:10.010Z,4.95
2023-07-11T08:13:53.614Z,5.25
2023-07-11T08:18:53.979Z,4.20
2023-07-11T08:21:20.408Z,5.03
2023-07-11T08:23:46.881Z,3.97
2023-07-11T08:26:13.427Z,5.38
2023-07-11T08:28:41.342Z,4.57
2023-07-11T08:31:08.067Z,5.90
2023-07-11T08:33:34.726Z,2.97
2023-07-11T08:36:01.166Z,5.45
2023-07-11T08:38:27.603Z,4.90
2023-07-11T08:40:54.061Z,3.95
2023-07-11T08:43:26.284Z,3.28
2023-07-11T08:46:11.272Z,10.93
2023-07-11T08:48:44.965Z,5.32
2023-07-11T08:51:17.938Z,5.78
2023-07-11T08:53:51.948Z,3.88
2023-07-11T08:56:23.198Z,3.50
2023-07-11T08:58:51.682Z,3.95
2023-07-11T09:01:33.427Z,6.38
2023-07-11T09:04:00.745Z,5.68
2023-07-11T09:06:35.510Z,3.88
2023-07-11T09:09:01.958Z,4.03
2023-07-11T09:11:33.873Z,4.28
2023-07-11T09:14:11.103Z,6.55
2023-07-11T09:16:45.857Z,5.18
2023-07-11T09:19:25.454Z,4.60
2023-07-11T09:21:57.679Z,3.45
2023-07-11T09:24:31.324Z,4.43
2023-07-11T09:27:02.167Z,4.38
2023-07-11T09:29:29.454Z,4.97
2023-07-11T09:32:01.977Z,4.22
2023-07-11T09:34:33.675Z,4.13
2023-07-11T09:37:03.805Z,4.30
2023-07-11T09:39:38.820Z,5.43
2023-07-11T09:42:13.983Z,3.30
2023-07-11T09:44:40.437Z,4.82
2023-07-11T09:47:17.756Z,7.18
2023-07-11T09:49:47.670Z,5.45
2023-07-11T09:52:22.319Z,3.70
2023-07-11T09:54:59.786Z,4.57
2023-07-11T09:57:34.994Z,4.18
2023-07-11T10:00:20.989Z,4.53
2023-07-11T10:02:51.111Z,4.97
2023-07-11T10:05:18.587Z,5.97
2023-07-11T10:07:45.131Z,5.15
2023-07-11T10:10:14.334Z,5.60
2023-07-11T10:12:43.508Z,9.98
2023-07-11T10:15:15.516Z,5.20
2023-07-11T10:17:44.449Z,6.55
2023-07-11T10:20:20.027Z,5.07
2023-07-11T10:22:50.141Z,6.32
2023-07-11T10:25:20.199Z,6.65
2023-07-11T10:27:53.560Z,5.10
2023-07-11T10:30:27.105Z,4.97
2023-07-11T10:33:07.917Z,6.25
2023-07-11T10:35:41.839Z,5.97
2023-07-11T10:38:17.455Z,9.07
2023-07-11T10:40:46.601Z,6.22
2023-07-11T10:43:23.311Z,5.30
2023-07-11T10:45:52.553Z,4.65
2023-07-11T10:48:26.623Z,8.32
2023-07-11T10:50:58.067Z,5.35
2023-07-11T10:53:29.863Z,5.30
2023-07-11T10:56:01.604Z,5.30
2023-07-11T10:58:28.306Z,6.13
2023-07-11T11:01:16.992Z,5.22
2023-07-11T11:03:46.622Z,10.15
2023-07-11T11:06:33.100Z,6.20
2023-07-11T11:09:09.172Z,6.47
2023-07-11T11:11:47.170Z,9.52
2023-07-11T11:14:16.333Z,8.02
2023-07-11T11:17:05.607Z,6.18
2023-07-11T11:19:46.017Z,6.93
2023-07-11T11:22:21.817Z,5.88
2023-07-11T11:24:57.110Z,8.25
2023-07-11T11:27:43.235Z,8.25
2023-07-11T11:30:26.117Z,7.28
2023-07-11T11:33:01.323Z,5.32
2023-07-11T11:35:37.197Z,6.18
2023-07-11T11:38:36.307Z,5.60
2023-07-11T11:41:11.407Z,5.95
2023-07-11T11:45:58.807Z,5.88
2023-07-11T11:46:32.422Z,5.82
2023-07-11T11:51:31.480Z,5.50
2023-07-11T11:54:16.412Z,5.43
2023-07-11T11:56:45.632Z,5.78
2023-07-11T11:59:18.001Z,7.25
2023-07-11T12:01:57.487Z,7.05
2023-07-11T12:04:57.966Z,5.32
2023-07-11T12:07:27.749Z,7.88
2023-07-11T12:10:12.520Z,6.35
2023-07-11T12:13:13.619Z,6.20
2023-07-11T12:15:40.696Z,6.32
2023-07-11T12:18:36.685Z,6.22
2023-07-11T12:21:22.164Z,8.43
2023-07-11T12:26:23.907Z,6.85
2023-07-11T12:28:51.222Z,8.35
2023-07-11T12:31:21.177Z,6.45
2023-07-11T12:34:01.529Z,6.13
2023-07-11T12:36:44.916Z,6.00
2023-07-11T12:39:23.076Z,7.00
2023-07-11T12:42:01.153Z,8.07
2023-07-11T12:44:32.784Z,5.88
2023-07-11T12:47:02.888Z,6.20
2023-07-11T12:49:30.423Z,6.30
2023-07-11T12:52:05.079Z,7.00
2023-07-11T12:54:31.547Z,5.75
2023-07-11T12:56:59.369Z,7.18
2023-07-11T12:59:27.713Z,7.18
2023-07-11T13:01:57.044Z,6.55
2023-07-11T13:04:33.976Z,6.70
2023-07-11T13:07:00.899Z,12.02
2023-07-11T13:09:27.758Z,6.65
2023-07-11T13:11:55.071Z,6.68
2023-07-11T13:14:23.402Z,5.95
2023-07-11T13:16:50.781Z,7.55
2023-07-11T13:19:19.256Z,7.90
2023-07-11T13:21:47.504Z,7.07
2023-07-11T13:24:17.643Z,6.32
2023-07-11T13:26:44.109Z,6.88
2023-07-11T13:29:16.645Z,6.93
2023-07-11T13:31:46.837Z,6.38
2023-07-11T13:34:15.535Z,6.43
2023-07-11T13:36:44.623Z,6.95
2023-07-11T13:39:13.774Z,7.10
2023-07-11T13:41:40.285Z,8.93
2023-07-11T13:44:15.293Z,8.63
2023-07-11T13:46:41.842Z,7.05
2023-07-11T13:49:16.489Z,7.60
2023-07-11T13:51:42.999Z,8.70
2023-07-11T13:54:16.145Z,8.95
2023-07-11T13:56:42.632Z,8.65
2023-07-11T13:59:09.553Z,8.00
2023-07-11T14:01:41.521Z,8.32
2023-07-11T14:04:17.191Z,8.25
2023-07-11T14:06:44.255Z,7.95
2023-07-11T14:09:12.025Z,7.15
2023-07-11T14:11:39.369Z,8.25
2023-07-11T14:14:21.685Z,7.25
2023-07-11T14:16:58.850Z,8.95
2023-07-11T14:19:29.352Z,7.10
2023-07-11T14:21:55.905Z,7.00
2023-07-11T14:24:22.336Z,7.03
2023-07-11T14:26:49.234Z,6.75
2023-07-11T14:29:23.232Z,10.77
2023-07-11T14:31:50.849Z,6.93
2023-07-11T14:34:20.207Z,7.53
2023-07-11T14:36:48.895Z,7.53
2023-07-11T14:39:15.952Z,7.00
2023-07-11T14:41:49.503Z,8.68
2023-07-11T14:44:24.203Z,9.23
2023-07-11T14:46:51.952Z,7.32
2023-07-11T14:49:18.938Z,7.82
2023-07-11T14:51:45.598Z,7.75
2023-07-11T14:54:16.785Z,7.90
2023-07-11T14:59:24.832Z,9.73
2023-07-11T15:01:52.339Z,7.40
2023-07-11T15:11:48.560Z,7.45
2023-07-11T15:16:49.709Z,7.65
2023-07-11T15:19:17.702Z,8.73
2023-07-11T15:21:45.838Z,7.95
2023-07-11T15:24:15.285Z,8.15
2023-07-11T15:26:43.323Z,7.35
2023-07-11T15:29:12.439Z,7.90
2023-07-11T15:31:38.929Z,7.75
2023-07-11T15:34:11.006Z,6.72
2023-07-11T15:36:37.426Z,7.90
2023-07-11T15:39:04.078Z,10.45
2023-07-11T15:41:30.680Z,10.43
2023-07-11T15:44:00.384Z,9.25
2023-07-11T15:46:26.917Z,7.80
2023-07-11T15:48:53.415Z,8.35
2023-07-11T15:51:19.859Z,8.82
2023-07-11T15:53:46.346Z,7.63
2023-07-11T15:56:13.704Z,8.98
2023-07-11T15:58:40.317Z,7.60
2023-07-11T16:01:08.549Z,9.25
2023-07-11T16:03:35.176Z,8.65
2023-07-11T16:06:02.144Z,7.57
2023-07-11T16:08:33.424Z,10.25
2023-07-11T16:11:01.869Z,10.65
2023-07-11T16:13:30.529Z,7.93
2023-07-11T16:15:57.627Z,7.55
2023-07-11T16:18:26.765Z,8.07
2023-07-11T16:20:53.429Z,8.38
2023-07-11T16:23:21.658Z,7.80
2023-07-11T16:25:49.172Z,8.10
2023-07-11T16:28:21.531Z,9.00
2023-07-11T16:30:47.983Z,7.10
2023-07-11T16:33:20.971Z,10.80
2023-07-11T16:35:48.811Z,9.45
2023-07-11T16:38:17.713Z,8.43
2023-07-11T16:40:45.030Z,9.27
2023-07-11T16:43:11.590Z,8.98
2023-07-11T16:45:38.015Z,9.10
2023-07-11T16:48:09.984Z,8.88
2023-07-11T16:50:36.609Z,12.90
2023-07-11T16:53:15.791Z,9.45
2023-07-11T16:55:42.300Z,9.70
2023-07-11T16:58:17.967Z,9.57
2023-07-11T17:00:44.523Z,8.57
2023-07-11T17:03:12.639Z,9.23
2023-07-11T17:05:39.540Z,10.52
2023-07-11T17:08:11.997Z,12.75
2023-07-11T17:10:38.507Z,9.07
2023-07-11T17:13:11.660Z,10.05
2023-07-11T17:15:38.087Z,10.02
2023-07-11T17:18:04.651Z,9.10
2023-07-11T17:20:31.158Z,9.63
2023-07-11T17:22:57.869Z,8.23
2023-07-11T17:25:25.822Z,9.02
2023-07-11T17:27:52.826Z,9.88
2023-07-11T17:30:22.688Z,8.77
2023-07-11T17:32:49.323Z,9.95
2023-07-11T17:35:16.673Z,10.40
2023-07-11T17:37:45.091Z,9.07
2023-07-11T17:40:18.536Z,9.07
2023-07-11T17:42:46.687Z,9.48
2023-07-11T17:45:18.567Z,9.90
2023-07-11T17:50:24.547Z,8.25
2023-07-11T17:52:51.396Z,8.45
2023-07-11T17:55:18.229Z,9.57
2023-07-11T17:57:46.193Z,9.60
2023-07-11T18:00:15.366Z,12.05
2023-07-11T18:02:57.093Z,10.93
2023-07-11T18:05:27.014Z,9.30
2023-07-11T18:07:53.453Z,9.73
2023-07-11T18:10:23.985Z,8.63
2023-07-11T18:13:08.320Z,9.48
2023-07-11T18:15:36.897Z,9.90
2023-07-11T18:18:04.088Z,8.43
2023-07-11T18:20:31.604Z,9.15
2023-07-11T18:22:58.673Z,8.90
2023-07-11T18:25:25.279Z,9.60
2023-07-11T18:27:53.075Z,8.75
2023-07-11T18:30:23.965Z,9.75
2023-07-11T18:32:51.120Z,10.07
2023-07-11T18:35:19.437Z,10.25
2023-07-11T18:37:47.326Z,10.25
2023-07-11T18:40:24.102Z,8.65
2023-07-11T18:42:53.338Z,9.45
2023-07-11T18:45:21.455Z,9.48
2023-07-11T18:47:48.113Z,9.75
2023-07-11T18:50:18.262Z,14.52
2023-07-11T18:52:45.105Z,11.75
2023-07-11T18:55:12.721Z,9.85
2023-07-11T18:57:39.563Z,9.82
2023-07-11T19:00:19.736Z,10.50
2023-07-11T19:02:46.600Z,9.07
2023-07-11T19:05:13.527Z,9.05
2023-07-11T19:07:40.041Z,9.52
2023-07-11T19:10:16.451Z,8.98
2023-07-11T19:12:42.970Z,11.80
2023-07-11T19:15:14.241Z,10.00
2023-07-11T19:17:43.469Z,10.10
2023-07-11T19:20:18.951Z,12.00
2023-07-11T19:22:46.664Z,10.73
2023-07-11T19:25:15.930Z,10.98
2023-07-11T19:27:44.842Z,11.15
2023-07-11T19:30:22.435Z,11.15
2023-07-11T19:32:50.396Z,10.07
2023-07-11T19:35:17.069Z,9.68
2023-07-11T19:37:46.468Z,10.07
2023-07-11T19:40:16.669Z,9.48
2023-07-11T19:42:43.227Z,9.45
2023-07-11T19:45:13.772Z,9.52
2023-07-11T19:47:41.864Z,10.15
2023-07-11T19:50:35.623Z,10.50
2023-07-11T19:53:02.129Z,10.10
2023-07-11T19:55:29.538Z,11.10
2023-07-11T19:57:56.508Z,9.23
2023-07-11T20:00:30.031Z,11.55
2023-07-11T20:02:58.368Z,10.32
2023-07-11T20:05:26.801Z,11.07
2023-07-11T20:07:53.455Z,11.52
2023-07-11T20:10:32.498Z,10.82
2023-07-11T20:13:00.109Z,9.23
2023-07-11T20:15:26.572Z,10.15
2023-07-11T20:17:53.147Z,10.50
2023-07-11T20:20:24.404Z,9.75
2023-07-11T20:22:51.048Z,10.50
2023-07-11T20:25:18.730Z,10.95
2023-07-11T20:27:45.500Z,11.75
2023-07-11T20:30:15.884Z,10.80
2023-07-11T20:32:42.925Z,10.75
2023-07-11T20:35:11.454Z,13.10
2023-07-11T20:37:39.615Z,10.57
2023-07-11T20:40:19.624Z,11.45
2023-07-11T20:42:46.141Z,10.00
2023-07-11T20:45:12.989Z,11.43
2023-07-11T20:47:39.515Z,10.25
2023-07-11T20:50:15.267Z,10.73
2023-07-11T20:52:43.240Z,11.40
2023-07-11T20:55:11.544Z,10.95
2023-07-11T20:57:38.057Z,12.30
2023-07-11T21:00:18.645Z,11.75
2023-07-11T21:02:45.317Z,10.43
2023-07-11T21:05:13.056Z,11.32
2023-07-11T21:07:39.572Z,11.13
2023-07-11T21:10:18.754Z,12.48
2023-07-11T21:12:45.700Z,11.52
2023-07-11T21:15:12.799Z,12.25
2023-07-11T21:17:51.560Z,11.20
2023-07-11T21:20:22.443Z,11.30
2023-07-11T21:22:49.099Z,11.25
2023-07-11T21:25:16.941Z,12.20
2023-07-11T21:27:43.464Z,11.15
2023-07-11T21:30:24.528Z,12.63
2023-07-11T21:32:52.571Z,11.70
2023-07-11T21:35:22.467Z,11.95
2023-07-11T21:37:49.325Z,13.95
2023-07-11T21:40:21.583Z,12.15
2023-07-11T21:42:48.595Z,12.03
2023-07-11T21:45:16.892Z,12.13
2023-07-11T21:47:43.775Z,12.35
2023-07-11T21:50:34.030Z,12.55
2023-07-11T21:53:00.937Z,10.45
2023-07-11T21:55:28.740Z,11.77
2023-07-11T21:57:55.245Z,11.75
2023-07-11T22:00:25.410Z,11.60
2023-07-11T22:02:52.306Z,11.70
2023-07-11T22:05:18.969Z,13.40
2023-07-11T22:07:46.685Z,11.73
2023-07-11T22:10:23.583Z,12.07
2023-07-11T22:12:51.375Z,11.77
2023-07-11T22:15:18.942Z,11.40
2023-07-11T22:17:45.696Z,12.15
2023-07-11T22:20:15.933Z,12.77
2023-07-11T22:22:42.450Z,10.95
2023-07-11T22:25:09.003Z,11.32
2023-07-11T22:27:35.433Z,12.30
2023-07-11T22:30:03.929Z,11.38
2023-07-11T22:32:30.442Z,14.13
2023-07-11T22:34:56.910Z,11.73
2023-07-11T22:37:23.326Z,11.45
2023-07-11T22:39:49.742Z,11.48
2023-07-11T22:42:16.139Z,11.23
2023-07-11T22:44:42.578Z,13.02
2023-07-11T22:47:10.802Z,11.40
2023-07-11T22:49:37.258Z,12.13
2023-07-11T22:52:04.166Z,12.13
2023-07-11T22:54:30.811Z,12.80
2023-07-11T22:56:57.245Z,12.35
2023-07-11T22:59:23.737Z,12.38
2023-07-11T23:01:50.200Z,12.98
2023-07-11T23:04:18.028Z,11.68
2023-07-11T23:06:44.553Z,12.35
2023-07-11T23:09:12.635Z,13.10
2023-07-11T23:11:39.120Z,12.30
2023-07-11T23:14:05.569Z,12.68
2023-07-11T23:16:32.055Z,13.05
2023-07-11T23:19:01.978Z,11.65
2023-07-11T23:21:30.752Z,13.52
2023-07-11T23:23:57.867Z,12.50
2023-07-11T23:26:27.852Z,12.07
2023-07-11T23:28:55.965Z,13.10
2023-07-11T23:31:22.524Z,12.05
2023-07-11T23:33:49.308Z,12.55
2023-07-11T23:36:20.152Z,12.85
2023-07-11T23:38:50.076Z,12.18
2023-07-11T23:41:17.069Z,11.45
2023-07-11T23:43:43.698Z,12.00
2023-07-11T23:46:18.597Z,11.65
2023-07-11T23:48:45.311Z,12.27
2023-07-11T23:51:12.238Z,13.18
2023-07-11T23:53:39.239Z,12.68
2023-07-11T23:56:17.495Z,12.18
2023-07-11T23:58:44.880Z,12.88
